sensor_id;sensor_type;location;lat;lon;timestamp;pressure;altitude;pressure_sealevel;temperature;humidity
7614;BME280;3848;42.016;23.098;2024-03-22T00:01:56;97110.28;;;8.39;60.60
7614;BME280;3848;42.016;23.098;2024-03-22T00:04:23;97103.47;;;8.32;60.44
7614;BME280;3848;42.016;23.098;2024-03-22T00:06:51;97102.66;;;8.30;60.05
7614;BME280;3848;42.016;23.098;2024-03-22T00:09:18;97101.81;;;8.19;61.05
7614;BME280;3848;42.016;23.098;2024-03-22T00:11:44;97114.47;;;8.22;61.43
7614;BME280;3848;42.016;23.098;2024-03-22T00:14:11;97106.88;;;8.13;61.69
7614;BME280;3848;42.016;23.098;2024-03-22T00:16:38;97099.25;;;7.99;62.28
7614;BME280;3848;42.016;23.098;2024-03-22T00:19:05;97104.31;;;7.99;63.50
7614;BME280;3848;42.016;23.098;2024-03-22T00:21:31;97111.88;;;7.85;63.07
7614;BME280;3848;42.016;23.098;2024-03-22T00:23:59;97106.81;;;7.82;63.38
7614;BME280;3848;42.016;23.098;2024-03-22T00:26:26;97096.69;;;7.75;63.04
7614;BME280;3848;42.016;23.098;2024-03-22T00:28:53;97095.00;;;7.72;62.56
7614;BME280;3848;42.016;23.098;2024-03-22T00:31:19;97094.13;;;7.67;62.17
7614;BME280;3848;42.016;23.098;2024-03-22T00:33:46;97091.59;;;7.64;62.45
7614;BME280;3848;42.016;23.098;2024-03-22T00:36:12;97091.59;;;7.64;61.76
7614;BME280;3848;42.016;23.098;2024-03-22T00:38:39;97095.78;;;7.65;61.93
7614;BME280;3848;42.016;23.098;2024-03-22T00:41:06;97081.47;;;7.55;62.22
7614;BME280;3848;42.016;23.098;2024-03-22T00:43:34;97090.72;;;7.59;62.67
7614;BME280;3848;42.016;23.098;2024-03-22T00:46:00;97099.16;;;7.64;62.69
7614;BME280;3848;42.016;23.098;2024-03-22T00:48:28;97100.84;;;7.60;62.89
7614;BME280;3848;42.016;23.098;2024-03-22T00:50:54;97110.97;;;7.65;63.02
7614;BME280;3848;42.016;23.098;2024-03-22T00:53:21;97108.44;;;7.59;62.78
7614;BME280;3848;42.016;23.098;2024-03-22T00:55:47;97100.00;;;7.51;61.30
7614;BME280;3848;42.016;23.098;2024-03-22T00:58:18;97099.94;;;7.48;61.79
7614;BME280;3848;42.016;23.098;2024-03-22T01:00:44;97107.53;;;7.49;63.70
7614;BME280;3848;42.016;23.098;2024-03-22T01:03:11;97106.69;;;7.47;63.72
7614;BME280;3848;42.016;23.098;2024-03-22T01:05:37;97111.72;;;7.40;65.19
7614;BME280;3848;42.016;23.098;2024-03-22T01:08:06;97113.41;;;7.38;65.84
7614;BME280;3848;42.016;23.098;2024-03-22T01:10:33;97104.16;;;7.37;64.66
7614;BME280;3848;42.016;23.098;2024-03-22T01:13:00;97111.72;;;7.40;63.72
7614;BME280;3848;42.016;23.098;2024-03-22T01:15:27;97102.44;;;7.29;64.67
7614;BME280;3848;42.016;23.098;2024-03-22T01:17:54;97114.25;;;7.33;63.92
7614;BME280;3848;42.016;23.098;2024-03-22T01:20:20;97109.97;;;7.26;64.14
7614;BME280;3848;42.016;23.098;2024-03-22T01:22:47;97103.22;;;7.22;64.62
7614;BME280;3848;42.016;23.098;2024-03-22T01:25:13;97113.34;;;7.22;64.61
7614;BME280;3848;42.016;23.098;2024-03-22T01:27:40;97109.13;;;7.21;65.15
7614;BME280;3848;42.016;23.098;2024-03-22T01:30:07;97118.38;;;7.22;64.80
7614;BME280;3848;42.016;23.098;2024-03-22T01:32:36;97097.28;;;7.10;65.42
7614;BME280;3848;42.016;23.098;2024-03-22T01:35:02;97119.16;;;7.08;65.17
7614;BME280;3848;42.016;23.098;2024-03-22T01:37:29;97114.91;;;7.02;65.55
7614;BME280;3848;42.016;23.098;2024-03-22T01:39:55;97114.06;;;7.03;64.46
7614;BME280;3848;42.016;23.098;2024-03-22T01:42:23;97106.47;;;6.98;65.36
7614;BME280;3848;42.016;23.098;2024-03-22T01:44:49;97109.00;;;7.01;65.81
7614;BME280;3848;42.016;23.098;2024-03-22T01:47:17;97095.50;;;6.93;65.06
7614;BME280;3848;42.016;23.098;2024-03-22T01:49:44;97114.06;;;7.00;65.99
7614;BME280;3848;42.016;23.098;2024-03-22T01:52:11;97119.97;;;7.02;66.69
7614;BME280;3848;42.016;23.098;2024-03-22T01:54:37;97121.63;;;7.00;66.61
7614;BME280;3848;42.016;23.098;2024-03-22T01:57:05;97123.31;;;6.98;66.85
7614;BME280;3848;42.016;23.098;2024-03-22T01:59:32;97126.69;;;7.00;66.49
7614;BME280;3848;42.016;23.098;2024-03-22T02:02:00;97130.91;;;6.99;68.40
7614;BME280;3848;42.016;23.098;2024-03-22T02:04:26;97123.28;;;6.92;71.53
7614;BME280;3848;42.016;23.098;2024-03-22T02:06:55;97140.94;;;6.87;75.87
7614;BME280;3848;42.016;23.098;2024-03-22T02:09:21;97143.34;;;6.72;79.22
7614;BME280;3848;42.016;23.098;2024-03-22T02:11:48;97119.69;;;6.58;82.18
7614;BME280;3848;42.016;23.098;2024-03-22T02:14:14;97137.38;;;6.59;86.19
7614;BME280;3848;42.016;23.098;2024-03-22T02:16:41;97142.44;;;6.62;88.74
7614;BME280;3848;42.016;23.098;2024-03-22T02:19:07;97131.47;;;6.60;89.15
7614;BME280;3848;42.016;23.098;2024-03-22T02:21:34;97138.22;;;6.61;87.49
7614;BME280;3848;42.016;23.098;2024-03-22T02:24:02;97129.78;;;6.56;85.60
7614;BME280;3848;42.016;23.098;2024-03-22T02:26:29;97134.88;;;6.65;84.12
7614;BME280;3848;42.016;23.098;2024-03-22T02:28:55;97145.78;;;6.63;84.34
7614;BME280;3848;42.016;23.098;2024-03-22T02:31:22;97140.72;;;6.58;85.80
7614;BME280;3848;42.016;23.098;2024-03-22T02:33:47;97127.97;;;6.45;83.82
7614;BME280;3848;42.016;23.098;2024-03-22T02:36:14;97144.81;;;6.44;85.92
7614;BME280;3848;42.016;23.098;2024-03-22T02:38:40;97143.94;;;6.42;85.45
7614;BME280;3848;42.016;23.098;2024-03-22T02:41:09;97159.06;;;6.39;85.02
7614;BME280;3848;42.016;23.098;2024-03-22T02:43:35;97147.25;;;6.32;83.19
7614;BME280;3848;42.016;23.098;2024-03-22T02:46:02;97155.63;;;6.29;82.37
7614;BME280;3848;42.016;23.098;2024-03-22T02:48:28;97165.72;;;6.29;83.49
7614;BME280;3848;42.016;23.098;2024-03-22T02:50:57;97152.25;;;6.27;83.13
7614;BME280;3848;42.016;23.098;2024-03-22T02:53:23;97163.22;;;6.31;82.90
7614;BME280;3848;42.016;23.098;2024-03-22T02:55:50;97161.44;;;6.24;84.13
7614;BME280;3848;42.016;23.098;2024-03-22T02:58:19;97172.44;;;6.26;84.62
7614;BME280;3848;42.016;23.098;2024-03-22T03:00:47;97163.91;;;6.15;84.03
7614;BME280;3848;42.016;23.098;2024-03-22T03:03:13;97174.88;;;6.20;84.84
7614;BME280;3848;42.016;23.098;2024-03-22T03:05:41;97170.63;;;6.16;84.74
7614;BME280;3848;42.016;23.098;2024-03-22T03:08:07;97177.34;;;6.14;84.36
7614;BME280;3848;42.016;23.098;2024-03-22T03:10:35;97174.75;;;6.07;86.10
7614;BME280;3848;42.016;23.098;2024-03-22T03:13:01;97183.19;;;6.09;87.03
7614;BME280;3848;42.016;23.098;2024-03-22T03:15:29;97179.81;;;6.07;87.17
7614;BME280;3848;42.016;23.098;2024-03-22T03:17:55;97173.91;;;6.04;84.87
7614;BME280;3848;42.016;23.098;2024-03-22T03:20:22;97174.63;;;5.95;86.10
7614;BME280;3848;42.016;23.098;2024-03-22T03:22:48;97122.16;;;5.62;86.51
7614;BME280;3848;42.016;23.098;2024-03-22T03:25:15;97194.84;;;6.01;87.18
7614;BME280;3848;42.016;23.098;2024-03-22T03:27:41;97177.00;;;5.83;88.53
7614;BME280;3848;42.016;23.098;2024-03-22T03:30:08;97198.97;;;5.92;92.62
7614;BME280;3848;42.016;23.098;2024-03-22T03:32:36;97197.28;;;5.91;91.55
7614;BME280;3848;42.016;23.098;2024-03-22T03:35:03;97199.69;;;5.83;93.09
7614;BME280;3848;42.016;23.098;2024-03-22T03:37:30;97147.16;;;5.45;93.31
7614;BME280;3848;42.016;23.098;2024-03-22T03:39:57;97204.59;;;5.74;93.04
7614;BME280;3848;42.016;23.098;2024-03-22T03:42:23;97202.00;;;5.65;95.99
7614;BME280;3848;42.016;23.098;2024-03-22T03:44:50;97185.84;;;5.50;96.71
7614;BME280;3848;42.016;23.098;2024-03-22T03:47:16;97198.56;;;5.61;97.24
7614;BME280;3848;42.016;23.098;2024-03-22T03:49:46;97207.72;;;5.55;98.39
7614;BME280;3848;42.016;23.098;2024-03-22T03:52:12;97200.91;;;5.46;98.59
7614;BME280;3848;42.016;23.098;2024-03-22T03:54:39;97206.81;;;5.49;97.49
7614;BME280;3848;42.016;23.098;2024-03-22T03:57:05;97212.66;;;5.45;97.83
7614;BME280;3848;42.016;23.098;2024-03-22T03:59:33;97199.22;;;5.46;96.07
7614;BME280;3848;42.016;23.098;2024-03-22T04:01:59;97210.13;;;5.44;97.17
7614;BME280;3848;42.016;23.098;2024-03-22T04:04:26;97198.16;;;5.29;98.78
7614;BME280;3848;42.016;23.098;2024-03-22T04:06:53;97206.59;;;5.31;100.00
7614;BME280;3848;42.016;23.098;2024-03-22T04:09:20;97217.44;;;5.27;100.00
7614;BME280;3848;42.016;23.098;2024-03-22T04:11:46;97220.75;;;5.23;100.00
7614;BME280;3848;42.016;23.098;2024-03-22T04:14:13;97220.59;;;5.12;100.00
7614;BME280;3848;42.016;23.098;2024-03-22T04:16:39;97230.63;;;5.09;100.00
7614;BME280;3848;42.016;23.098;2024-03-22T04:19:06;97223.91;;;5.10;100.00
7614;BME280;3848;42.016;23.098;2024-03-22T04:21:33;97234.88;;;5.15;100.00
7614;BME280;3848;42.016;23.098;2024-03-22T04:24:01;97230.69;;;5.14;100.00
7614;BME280;3848;42.016;23.098;2024-03-22T04:26:27;97220.44;;;5.02;100.00
7614;BME280;3848;42.016;23.098;2024-03-22T04:28:54;97242.19;;;4.98;100.00
7614;BME280;3848;42.016;23.098;2024-03-22T04:31:20;97250.69;;;5.03;100.00
7614;BME280;3848;42.016;23.098;2024-03-22T04:33:47;97249.03;;;5.05;100.00
7614;BME280;3848;42.016;23.098;2024-03-22T04:36:13;97244.78;;;5.03;100.00
7614;BME280;3848;42.016;23.098;2024-03-22T04:38:41;97249.94;;;5.10;100.00
7614;BME280;3848;42.016;23.098;2024-03-22T04:41:10;97245.81;;;5.15;100.00
7614;BME280;3848;42.016;23.098;2024-03-22T04:43:37;97222.00;;;4.95;100.00
7614;BME280;3848;42.016;23.098;2024-03-22T04:46:04;97227.91;;;4.97;100.00
7614;BME280;3848;42.016;23.098;2024-03-22T04:48:31;97259.25;;;5.16;100.00
7614;BME280;3848;42.016;23.098;2024-03-22T04:50:57;97260.94;;;5.17;100.00
7614;BME280;3848;42.016;23.098;2024-03-22T04:53:24;97244.88;;;5.09;100.00
7614;BME280;3848;42.016;23.098;2024-03-22T04:55:50;97268.50;;;5.18;100.00
7614;BME280;3848;42.016;23.098;2024-03-22T04:58:21;97262.59;;;5.15;100.00
7614;BME280;3848;42.016;23.098;2024-03-22T05:00:47;97273.56;;;5.18;100.00
7614;BME280;3848;42.016;23.098;2024-03-22T05:03:15;97273.47;;;5.12;100.00
7614;BME280;3848;42.016;23.098;2024-03-22T05:05:41;97274.22;;;5.07;100.00
7614;BME280;3848;42.016;23.098;2024-03-22T05:08:09;97275.88;;;5.05;100.00
7614;BME280;3848;42.016;23.098;2024-03-22T05:10:35;97282.59;;;5.04;100.00
7614;BME280;3848;42.016;23.098;2024-03-22T05:13:02;97269.94;;;5.01;100.00
7614;BME280;3848;42.016;23.098;2024-03-22T05:15:30;97285.06;;;5.01;100.00
7614;BME280;3848;42.016;23.098;2024-03-22T05:17:58;97268.16;;;4.96;100.00
7614;BME280;3848;42.016;23.098;2024-03-22T05:20:24;97286.03;;;5.11;100.00
7614;BME280;3848;42.016;23.098;2024-03-22T05:22:51;97253.66;;;4.79;100.00
7614;BME280;3848;42.016;23.098;2024-03-22T05:25:17;97275.63;;;4.89;100.00
7614;BME280;3848;42.016;23.098;2024-03-22T05:27:45;97288.22;;;4.91;100.00
7614;BME280;3848;42.016;23.098;2024-03-22T05:30:12;97300.78;;;4.89;100.00
7614;BME280;3848;42.016;23.098;2024-03-22T05:32:41;97296.50;;;4.84;100.00
7614;BME280;3848;42.016;23.098;2024-03-22T05:35:08;97301.63;;;4.88;100.00
7614;BME280;3848;42.016;23.098;2024-03-22T05:37:35;97303.38;;;4.93;100.00
7614;BME280;3848;42.016;23.098;2024-03-22T05:40:02;97300.88;;;4.96;100.00
7614;BME280;3848;42.016;23.098;2024-03-22T05:42:29;97301.16;;;5.11;100.00
7614;BME280;3848;42.016;23.098;2024-03-22T05:44:58;97300.56;;;5.27;100.00
7614;BME280;3848;42.016;23.098;2024-03-22T05:47:24;97292.25;;;5.33;100.00
7614;BME280;3848;42.016;23.098;2024-03-22T05:49:52;97273.81;;;5.35;100.00
7614;BME280;3848;42.016;23.098;2024-03-22T05:52:19;97304.88;;;5.34;100.00
7614;BME280;3848;42.016;23.098;2024-03-22T05:54:46;97300.03;;;5.48;100.00
7614;BME280;3848;42.016;23.098;2024-03-22T05:57:12;97306.06;;;5.58;100.00
7614;BME280;3848;42.016;23.098;2024-03-22T05:59:39;97300.22;;;5.62;100.00
7614;BME280;3848;42.016;23.098;2024-03-22T06:02:05;97302.88;;;5.69;100.00
7614;BME280;3848;42.016;23.098;2024-03-22T06:04:32;97303.84;;;5.82;100.00
7614;BME280;3848;42.016;23.098;2024-03-22T06:07:00;97290.38;;;5.80;100.00
7614;BME280;3848;42.016;23.098;2024-03-22T06:09:29;97258.25;;;5.62;100.00
7614;BME280;3848;42.016;23.098;2024-03-22T06:12:03;97306.66;;;6.00;100.00
7614;BME280;3848;42.016;23.098;2024-03-22T06:14:30;97305.16;;;6.13;100.00
7614;BME280;3848;42.016;23.098;2024-03-22T06:16:56;97305.25;;;6.24;100.00
7614;BME280;3848;42.016;23.098;2024-03-22T06:19:23;97299.44;;;6.28;100.00
7614;BME280;3848;42.016;23.098;2024-03-22T06:21:49;97282.53;;;6.22;100.00
7614;BME280;3848;42.016;23.098;2024-03-22T06:24:18;97302.91;;;6.39;100.00
7614;BME280;3848;42.016;23.098;2024-03-22T06:26:44;97294.50;;;6.40;100.00
7614;BME280;3848;42.016;23.098;2024-03-22T06:29:11;97306.53;;;6.64;100.00
7614;BME280;3848;42.016;23.098;2024-03-22T06:31:38;97309.16;;;6.73;100.00
7614;BME280;3848;42.016;23.098;2024-03-22T06:34:05;97306.75;;;6.87;100.00
7614;BME280;3848;42.016;23.098;2024-03-22T06:36:31;97304.28;;;6.91;98.42
7614;BME280;3848;42.016;23.098;2024-03-22T06:38:59;97309.44;;;7.02;96.91
7614;BME280;3848;42.016;23.098;2024-03-22T06:41:28;97312.06;;;7.14;94.24
7614;BME280;3848;42.016;23.098;2024-03-22T06:43:55;97305.38;;;7.22;90.85
7614;BME280;3848;42.016;23.098;2024-03-22T06:46:21;97308.06;;;7.41;91.18
7614;BME280;3848;42.016;23.098;2024-03-22T06:48:48;97302.25;;;7.54;90.65
7614;BME280;3848;42.016;23.098;2024-03-22T06:51:14;97304.00;;;7.67;87.05
7614;BME280;3848;42.016;23.098;2024-03-22T06:53:41;97306.63;;;7.76;87.39
7614;BME280;3848;42.016;23.098;2024-03-22T06:56:07;97288.09;;;7.83;81.77
7614;BME280;3848;42.016;23.098;2024-03-22T06:58:38;97304.22;;;8.07;74.18
7614;BME280;3848;42.016;23.098;2024-03-22T07:01:05;97305.06;;;8.12;72.08
7614;BME280;3848;42.016;23.098;2024-03-22T07:03:33;97310.28;;;8.35;72.73
7614;BME280;3848;42.016;23.098;2024-03-22T07:05:59;97311.22;;;8.66;69.68
7614;BME280;3848;42.016;23.098;2024-03-22T07:08:26;97312.09;;;8.78;68.30
7614;BME280;3848;42.016;23.098;2024-03-22T07:10:53;97309.59;;;9.06;67.14
7614;BME280;3848;42.016;23.098;2024-03-22T07:13:21;97303.69;;;9.19;65.31
7614;BME280;3848;42.016;23.098;2024-03-22T07:15:51;97298.59;;;9.34;64.67
7614;BME280;3848;42.016;23.098;2024-03-22T07:18:19;97306.22;;;9.45;64.21
7614;BME280;3848;42.016;23.098;2024-03-22T07:20:45;97304.50;;;9.56;64.87
7614;BME280;3848;42.016;23.098;2024-03-22T07:23:13;97292.66;;;9.64;66.16
7614;BME280;3848;42.016;23.098;2024-03-22T07:25:39;97291.78;;;9.84;66.49
7614;BME280;3848;42.016;23.098;2024-03-22T07:28:08;97302.72;;;10.01;64.89
7614;BME280;3848;42.016;23.098;2024-03-22T07:30:34;97293.41;;;10.03;62.88
7614;BME280;3848;42.016;23.098;2024-03-22T07:33:04;97303.53;;;10.07;62.78
7614;BME280;3848;42.016;23.098;2024-03-22T07:35:30;97295.94;;;10.07;62.70
7614;BME280;3848;42.016;23.098;2024-03-22T07:37:57;97300.97;;;10.24;62.70
7614;BME280;3848;42.016;23.098;2024-03-22T07:40:26;97296.72;;;10.28;63.52
7614;BME280;3848;42.016;23.098;2024-03-22T07:42:54;97298.31;;;10.50;62.34
7614;BME280;3848;42.016;23.098;2024-03-22T07:45:20;97299.94;;;10.60;61.42
7614;BME280;3848;42.016;23.098;2024-03-22T07:47:47;97300.78;;;10.65;61.25
7614;BME280;3848;42.016;23.098;2024-03-22T07:50:15;97298.22;;;10.70;61.35
7614;BME280;3848;42.016;23.098;2024-03-22T07:52:42;97299.84;;;10.83;60.77
7614;BME280;3848;42.016;23.098;2024-03-22T07:55:08;97247.47;;;10.53;60.41
7614;BME280;3848;42.016;23.098;2024-03-22T07:57:35;97302.28;;;10.94;60.67
7614;BME280;3848;42.016;23.098;2024-03-22T08:00:02;97297.13;;;11.05;60.47
7614;BME280;3848;42.016;23.098;2024-03-22T08:02:29;97292.00;;;11.12;59.98
7614;BME280;3848;42.016;23.098;2024-03-22T08:04:55;97291.06;;;11.21;61.12
7614;BME280;3848;42.016;23.098;2024-03-22T08:07:24;97282.50;;;11.31;61.41
7614;BME280;3848;42.016;23.098;2024-03-22T08:09:50;97287.38;;;11.55;60.33
7614;BME280;3848;42.016;23.098;2024-03-22T08:12:17;97291.53;;;11.63;59.58
7614;BME280;3848;42.016;23.098;2024-03-22T08:14:45;97289.72;;;11.75;61.54
7614;BME280;3848;42.016;23.098;2024-03-22T08:17:12;97293.03;;;11.88;59.41
7614;BME280;3848;42.016;23.098;2024-03-22T08:19:38;97275.13;;;11.94;58.88
7614;BME280;3848;42.016;23.098;2024-03-22T08:22:05;97284.19;;;12.18;57.83
7614;BME280;3848;42.016;23.098;2024-03-22T08:24:32;97278.03;;;12.36;57.00
7614;BME280;3848;42.016;23.098;2024-03-22T08:26:59;97282.22;;;12.40;56.58
7614;BME280;3848;42.016;23.098;2024-03-22T08:29:25;97280.41;;;12.48;56.77
7614;BME280;3848;42.016;23.098;2024-03-22T08:31:52;97279.44;;;12.58;56.20
7614;BME280;3848;42.016;23.098;2024-03-22T08:34:18;97279.28;;;12.70;55.85
7614;BME280;3848;42.016;23.098;2024-03-22T08:36:46;97269.06;;;12.70;55.05
7614;BME280;3848;42.016;23.098;2024-03-22T08:39:12;97253.72;;;12.73;55.91
7614;BME280;3848;42.016;23.098;2024-03-22T08:41:42;97204.69;;;12.56;55.64
7614;BME280;3848;42.016;23.098;2024-03-22T08:44:08;97250.75;;;13.01;55.67
7614;BME280;3848;42.016;23.098;2024-03-22T08:46:35;97190.81;;;12.74;55.43
7614;BME280;3848;42.016;23.098;2024-03-22T08:49:01;97254.63;;;13.26;54.09
7614;BME280;3848;42.016;23.098;2024-03-22T08:51:28;97258.56;;;13.44;54.37
7614;BME280;3848;42.016;23.098;2024-03-22T08:53:55;97259.22;;;13.57;53.88
7614;BME280;3848;42.016;23.098;2024-03-22T08:56:22;97251.22;;;13.75;54.59
7614;BME280;3848;42.016;23.098;2024-03-22T08:58:49;97247.81;;;13.73;53.04
7614;BME280;3848;42.016;23.098;2024-03-22T09:01:17;97247.53;;;13.88;52.29
7614;BME280;3848;42.016;23.098;2024-03-22T09:03:43;97246.63;;;13.91;52.23
7614;BME280;3848;42.016;23.098;2024-03-22T09:06:12;97244.53;;;14.11;53.64
7614;BME280;3848;42.016;23.098;2024-03-22T09:08:38;97250.09;;;14.30;52.77
7614;BME280;3848;42.016;23.098;2024-03-22T09:11:05;97254.25;;;14.37;52.43
7614;BME280;3848;42.016;23.098;2024-03-22T09:13:31;97221.00;;;14.37;51.82
7614;BME280;3848;42.016;23.098;2024-03-22T09:16:01;97233.97;;;14.68;52.67
7614;BME280;3848;42.016;23.098;2024-03-22T09:18:28;97211.56;;;14.78;50.11
7614;BME280;3848;42.016;23.098;2024-03-22T09:20:55;97225.44;;;15.05;49.95
7614;BME280;3848;42.016;23.098;2024-03-22T09:23:22;97225.59;;;15.33;48.60
7614;BME280;3848;42.016;23.098;2024-03-22T09:25:49;97195.31;;;15.48;49.32
7614;BME280;3848;42.016;23.098;2024-03-22T09:28:15;97209.13;;;15.75;46.88
7614;BME280;3848;42.016;23.098;2024-03-22T09:30:42;97205.25;;;15.92;45.92
7614;BME280;3848;42.016;23.098;2024-03-22T09:33:10;97198.50;;;16.19;44.04
7614;BME280;3848;42.016;23.098;2024-03-22T09:35:37;97186.66;;;16.72;44.02
7614;BME280;3848;42.016;23.098;2024-03-22T09:38:03;97186.31;;;17.09;43.98
7614;BME280;3848;42.016;23.098;2024-03-22T09:40:30;97176.75;;;17.62;44.00
7614;BME280;3848;42.016;23.098;2024-03-22T09:43:02;97190.69;;;18.27;42.68
7614;BME280;3848;42.016;23.098;2024-03-22T09:45:31;97173.03;;;18.63;41.08
7614;BME280;3848;42.016;23.098;2024-03-22T09:47:58;97175.34;;;18.47;40.79
7614;BME280;3848;42.016;23.098;2024-03-22T09:50:27;97164.47;;;18.84;41.65
7614;BME280;3848;42.016;23.098;2024-03-22T09:52:54;97166.94;;;19.08;37.23
7614;BME280;3848;42.016;23.098;2024-03-22T09:55:23;97162.03;;;19.42;38.18
7614;BME280;3848;42.016;23.098;2024-03-22T09:57:50;97159.22;;;19.88;36.32
7614;BME280;3848;42.016;23.098;2024-03-22T10:00:19;97163.69;;;19.84;36.11
7614;BME280;3848;42.016;23.098;2024-03-22T10:02:48;97144.66;;;20.05;37.85
7614;BME280;3848;42.016;23.098;2024-03-22T10:05:16;97146.34;;;20.44;36.43
7614;BME280;3848;42.016;23.098;2024-03-22T10:07:44;97152.84;;;20.70;36.75
7614;BME280;3848;42.016;23.098;2024-03-22T10:10:12;97146.69;;;20.73;36.09
7614;BME280;3848;42.016;23.098;2024-03-22T10:12:39;97154.75;;;21.01;35.73
7614;BME280;3848;42.016;23.098;2024-03-22T10:15:06;97144.13;;;20.90;35.95
7614;BME280;3848;42.016;23.098;2024-03-22T10:17:34;97139.78;;;20.90;34.90
7614;BME280;3848;42.016;23.098;2024-03-22T10:20:01;97157.53;;;20.79;35.48
7614;BME280;3848;42.016;23.098;2024-03-22T10:22:28;97144.50;;;20.46;35.11
7614;BME280;3848;42.016;23.098;2024-03-22T10:24:56;97141.63;;;20.52;35.96
7614;BME280;3848;42.016;23.098;2024-03-22T10:27:26;97133.84;;;20.71;35.61
7614;BME280;3848;42.016;23.098;2024-03-22T10:29:56;96966.88;;;19.65;33.54
7614;BME280;3848;42.016;23.098;2024-03-22T10:32:23;97126.03;;;20.90;35.44
7614;BME280;3848;42.016;23.098;2024-03-22T10:34:51;97134.78;;;21.05;33.35
7614;BME280;3848;42.016;23.098;2024-03-22T10:37:17;97129.97;;;20.97;34.30
7614;BME280;3848;42.016;23.098;2024-03-22T10:39:46;97112.34;;;21.05;35.57
7614;BME280;3848;42.016;23.098;2024-03-22T10:42:17;97134.81;;;21.55;35.49
7614;BME280;3848;42.016;23.098;2024-03-22T10:44:44;97124.97;;;21.46;34.55
7614;BME280;3848;42.016;23.098;2024-03-22T10:47:12;97097.72;;;21.39;34.87
7614;BME280;3848;42.016;23.098;2024-03-22T10:49:42;97116.16;;;21.66;35.02
7614;BME280;3848;42.016;23.098;2024-03-22T10:52:10;97110.75;;;21.86;33.59
7614;BME280;3848;42.016;23.098;2024-03-22T10:54:40;97107.25;;;22.03;33.56
7614;BME280;3848;42.016;23.098;2024-03-22T10:57:07;97102.38;;;22.14;32.97
7614;BME280;3848;42.016;23.098;2024-03-22T10:59:41;97099.97;;;21.78;32.44
7614;BME280;3848;42.016;23.098;2024-03-22T11:02:10;97097.59;;;22.06;34.56
7614;BME280;3848;42.016;23.098;2024-03-22T11:04:37;97050.16;;;22.06;32.25
7614;BME280;3848;42.016;23.098;2024-03-22T11:07:03;97073.56;;;22.20;33.52
7614;BME280;3848;42.016;23.098;2024-03-22T11:09:30;97080.22;;;22.40;33.06
7614;BME280;3848;42.016;23.098;2024-03-22T11:11:56;97077.84;;;22.51;35.18
7614;BME280;3848;42.016;23.098;2024-03-22T11:14:24;97066.97;;;22.30;33.40
7614;BME280;3848;42.016;23.098;2024-03-22T11:16:52;97069.75;;;22.41;33.14
7614;BME280;3848;42.016;23.098;2024-03-22T11:19:19;97078.44;;;22.86;33.21
7614;BME280;3848;42.016;23.098;2024-03-22T11:21:45;97067.72;;;22.62;31.27
7614;BME280;3848;42.016;23.098;2024-03-22T11:24:12;97066.97;;;22.90;33.14
7614;BME280;3848;42.016;23.098;2024-03-22T11:26:38;97061.97;;;22.87;32.30
7614;BME280;3848;42.016;23.098;2024-03-22T11:29:05;97014.53;;;22.41;32.64
7614;BME280;3848;42.016;23.098;2024-03-22T11:31:32;97067.06;;;22.59;31.98
7614;BME280;3848;42.016;23.098;2024-03-22T11:34:00;97054.19;;;22.57;31.07
7614;BME280;3848;42.016;23.098;2024-03-22T11:36:26;97055.53;;;22.94;33.24
7614;BME280;3848;42.016;23.098;2024-03-22T11:38:53;97065.81;;;23.24;33.19
7614;BME280;3848;42.016;23.098;2024-03-22T11:41:24;97058.19;;;23.07;32.36
7614;BME280;3848;42.016;23.098;2024-03-22T11:43:53;97053.09;;;23.05;31.80
7614;BME280;3848;42.016;23.098;2024-03-22T11:46:20;97055.63;;;23.21;31.17
7614;BME280;3848;42.016;23.098;2024-03-22T11:48:51;97058.31;;;23.20;33.85
7614;BME280;3848;42.016;23.098;2024-03-22T11:51:18;97059.06;;;23.36;31.60
7614;BME280;3848;42.016;23.098;2024-03-22T11:53:49;97038.41;;;23.20;29.64
7614;BME280;3848;42.016;23.098;2024-03-22T11:56:18;97047.03;;;23.35;29.44
7614;BME280;3848;42.016;23.098;2024-03-22T11:58:45;97047.88;;;23.35;29.15
7614;BME280;3848;42.016;23.098;2024-03-22T12:01:13;97043.56;;;23.06;30.21
7614;BME280;3848;42.016;23.098;2024-03-22T12:03:40;97050.53;;;23.05;30.41
7614;BME280;3848;42.016;23.098;2024-03-22T12:06:09;97022.09;;;23.04;30.27
7614;BME280;3848;42.016;23.098;2024-03-22T12:08:39;97016.19;;;23.16;31.28
7614;BME280;3848;42.016;23.098;2024-03-22T12:11:07;97033.97;;;22.78;29.62
7614;BME280;3848;42.016;23.098;2024-03-22T12:13:34;97037.69;;;22.74;30.30
7614;BME280;3848;42.016;23.098;2024-03-22T12:16:00;97024.94;;;22.55;31.99
7614;BME280;3848;42.016;23.098;2024-03-22T12:18:28;97035.41;;;22.84;32.96
7614;BME280;3848;42.016;23.098;2024-03-22T12:20:54;97029.38;;;22.83;32.37
7614;BME280;3848;42.016;23.098;2024-03-22T12:23:21;97024.75;;;22.88;32.51
7614;BME280;3848;42.016;23.098;2024-03-22T12:26:06;97030.88;;;22.87;30.40
7614;BME280;3848;42.016;23.098;2024-03-22T12:28:33;97006.34;;;23.07;32.01
7614;BME280;3848;42.016;23.098;2024-03-22T12:30:59;97003.88;;;23.34;31.57
7614;BME280;3848;42.016;23.098;2024-03-22T12:33:26;97014.31;;;23.47;31.12
7614;BME280;3848;42.016;23.098;2024-03-22T12:35:52;97006.63;;;23.45;29.95
7614;BME280;3848;42.016;23.098;2024-03-22T12:38:20;97004.78;;;23.61;29.42
7614;BME280;3848;42.016;23.098;2024-03-22T12:40:46;97006.28;;;23.37;29.53
7614;BME280;3848;42.016;23.098;2024-03-22T12:43:14;96999.97;;;23.27;28.93
7614;BME280;3848;42.016;23.098;2024-03-22T12:45:40;97011.47;;;22.94;29.24
7614;BME280;3848;42.016;23.098;2024-03-22T12:48:08;96993.41;;;22.93;29.64
7614;BME280;3848;42.016;23.098;2024-03-22T12:50:36;96998.50;;;22.94;31.16
7614;BME280;3848;42.016;23.098;2024-03-22T12:53:03;96988.50;;;23.17;30.68
7614;BME280;3848;42.016;23.098;2024-03-22T12:55:30;96995.72;;;23.40;30.92
7614;BME280;3848;42.016;23.098;2024-03-22T12:57:58;96994.59;;;23.58;28.67
7614;BME280;3848;42.016;23.098;2024-03-22T13:00:25;96993.09;;;23.68;28.87
7614;BME280;3848;42.016;23.098;2024-03-22T13:02:52;96984.94;;;23.75;29.12
7614;BME280;3848;42.016;23.098;2024-03-22T13:05:18;96969.38;;;23.46;29.32
7614;BME280;3848;42.016;23.098;2024-03-22T13:07:45;96990.50;;;23.54;29.99
7614;BME280;3848;42.016;23.098;2024-03-22T13:10:11;96971.59;;;23.52;30.07
7614;BME280;3848;42.016;23.098;2024-03-22T13:12:38;96975.72;;;23.56;29.01
7614;BME280;3848;42.016;23.098;2024-03-22T13:15:05;96969.03;;;23.38;29.58